sensor_id;sensor_type;location;lat;lon;timestamp;pressure;altitude;pressure_sealevel;temperature;humidity
57616;BME280;43816;52.054;-9.494;2022-12-07T00:00:07;102335.53;;;14.90;42.53
57616;BME280;43816;52.054;-9.494;2022-12-07T00:00:18;102343.56;;;14.91;42.44
57616;BME280;43816;52.054;-9.494;2022-12-07T00:00:28;102347.22;;;14.90;42.70
57616;BME280;43816;52.054;-9.494;2022-12-07T00:00:38;102340.94;;;14.90;42.54
57616;BME280;43816;52.054;-9.494;2022-12-07T00:00:49;102346.38;;;14.90;42.54
57616;BME280;43816;52.054;-9.494;2022-12-07T00:01:19;102329.78;;;14.82;42.34
57616;BME280;43816;52.054;-9.494;2022-12-07T00:01:34;102334.78;;;14.88;42.67
57616;BME280;43816;52.054;-9.494;2022-12-07T00:01:46;102341.16;;;14.87;42.75
57616;BME280;43816;52.054;-9.494;2022-12-07T00:01:56;102317.75;;;14.73;42.19
57616;BME280;43816;52.054;-9.494;2022-12-07T00:02:10;102346.38;;;14.90;42.58
57616;BME280;43816;52.054;-9.494;2022-12-07T00:02:20;102340.94;;;14.90;42.72
57616;BME280;43816;52.054;-9.494;2022-12-07T00:02:33;102340.09;;;14.89;42.28
57616;BME280;43816;52.054;-9.494;2022-12-07T00:02:43;102338.44;;;14.87;42.64
57616;BME280;43816;52.054;-9.494;2022-12-07T00:02:53;102333.25;;;14.84;42.31
57616;BME280;43816;52.054;-9.494;2022-12-07T00:03:07;102338.56;;;14.85;42.59
57616;BME280;43816;52.054;-9.494;2022-12-07T00:03:17;102341.81;;;14.90;42.54
57616;BME280;43816;52.054;-9.494;2022-12-07T00:03:27;102332.50;;;14.82;42.72
57616;BME280;43816;52.054;-9.494;2022-12-07T00:03:39;102337.50;;;14.88;42.45
57616;BME280;43816;52.054;-9.494;2022-12-07T00:03:51;102341.16;;;14.87;42.46
57616;BME280;43816;52.054;-9.494;2022-12-07T00:04:03;102348.22;;;14.89;42.55
57616;BME280;43816;52.054;-9.494;2022-12-07T00:04:16;102350.03;;;14.89;42.58
57616;BME280;43816;52.054;-9.494;2022-12-07T00:04:26;102330.53;;;14.84;42.67
57616;BME280;43816;52.054;-9.494;2022-12-07T00:04:36;102347.34;;;14.89;42.50
57616;BME280;43816;52.054;-9.494;2022-12-07T00:04:48;102336.84;;;14.84;42.83
57616;BME280;43816;52.054;-9.494;2022-12-07T00:05:02;102334.13;;;14.84;42.48
57616;BME280;43816;52.054;-9.494;2022-12-07T00:05:21;102335.09;;;14.83;42.45
57616;BME280;43816;52.054;-9.494;2022-12-07T00:05:31;102344.63;;;14.89;42.77
57616;BME280;43816;52.054;-9.494;2022-12-07T00:05:41;102344.63;;;14.89;42.59
57616;BME280;43816;52.054;-9.494;2022-12-07T00:05:57;102335.09;;;14.83;42.63
57616;BME280;43816;52.054;-9.494;2022-12-07T00:06:09;102335.00;;;14.85;42.49
57616;BME280;43816;52.054;-9.494;2022-12-07T00:06:20;102341.91;;;14.89;42.55
57616;BME280;43816;52.054;-9.494;2022-12-07T00:06:32;102347.34;;;14.89;42.55
57616;BME280;43816;52.054;-9.494;2022-12-07T00:06:45;102339.22;;;14.89;42.56
57616;BME280;43816;52.054;-9.494;2022-12-07T00:06:56;102348.31;;;14.88;42.53
57616;BME280;43816;52.054;-9.494;2022-12-07T00:07:06;102336.75;;;14.86;42.61
57616;BME280;43816;52.054;-9.494;2022-12-07T00:07:16;102325.47;;;14.79;42.42
57616;BME280;43816;52.054;-9.494;2022-12-07T00:07:26;102328.16;;;14.79;42.46
57616;BME280;43816;52.054;-9.494;2022-12-07T00:07:37;102333.34;;;14.82;42.78
57616;BME280;43816;52.054;-9.494;2022-12-07T00:07:47;102343.78;;;14.88;42.66
57616;BME280;43816;52.054;-9.494;2022-12-07T00:07:57;102333.94;;;14.87;42.68
57616;BME280;43816;52.054;-9.494;2022-12-07T00:08:08;102321.88;;;14.78;42.64
57616;BME280;43816;52.054;-9.494;2022-12-07T00:08:21;102336.75;;;14.86;42.61
57616;BME280;43816;52.054;-9.494;2022-12-07T00:08:34;102342.06;;;14.87;42.40
57616;BME280;43816;52.054;-9.494;2022-12-07T00:08:46;102326.44;;;14.78;42.29
57616;BME280;43816;52.054;-9.494;2022-12-07T00:08:56;102325.34;;;14.80;42.50
57616;BME280;43816;52.054;-9.494;2022-12-07T00:09:11;102346.59;;;14.87;42.49
57616;BME280;43816;52.054;-9.494;2022-12-07T00:09:22;102343.88;;;14.87;42.68
57616;BME280;43816;52.054;-9.494;2022-12-07T00:09:33;102342.06;;;14.87;42.48
57616;BME280;43816;52.054;-9.494;2022-12-07T00:09:43;102341.16;;;14.87;42.50
57616;BME280;43816;52.054;-9.494;2022-12-07T00:09:53;102329.03;;;14.79;42.73
57616;BME280;43816;52.054;-9.494;2022-12-07T00:10:04;102330.63;;;14.82;42.46
57616;BME280;43816;52.054;-9.494;2022-12-07T00:10:15;102342.91;;;14.88;42.42
57616;BME280;43816;52.054;-9.494;2022-12-07T00:10:25;102337.91;;;14.82;42.79
57616;BME280;43816;52.054;-9.494;2022-12-07T00:10:35;102341.16;;;14.87;42.64
57616;BME280;43816;52.054;-9.494;2022-12-07T00:10:45;102333.03;;;14.87;42.61
57616;BME280;43816;52.054;-9.494;2022-12-07T00:11:02;102330.78;;;14.80;42.48
57616;BME280;43816;52.054;-9.494;2022-12-07T00:11:18;102341.16;;;14.87;42.70
57616;BME280;43816;52.054;-9.494;2022-12-07T00:11:28;102326.31;;;14.79;42.48
57616;BME280;43816;52.054;-9.494;2022-12-07T00:11:39;102327.06;;;14.82;42.71
57616;BME280;43816;52.054;-9.494;2022-12-07T00:11:50;102340.31;;;14.86;42.31
57616;BME280;43816;52.054;-9.494;2022-12-07T00:12:01;102322.97;;;14.76;42.73
57616;BME280;43816;52.054;-9.494;2022-12-07T00:12:11;102333.03;;;14.87;42.50
57616;BME280;43816;52.054;-9.494;2022-12-07T00:12:21;102323.81;;;14.76;42.42
57616;BME280;43816;52.054;-9.494;2022-12-07T00:12:32;102334.44;;;14.79;42.62
57616;BME280;43816;52.054;-9.494;2022-12-07T00:12:42;102343.88;;;14.87;42.75
57616;BME280;43816;52.054;-9.494;2022-12-07T00:12:52;102346.59;;;14.87;42.39
57616;BME280;43816;52.054;-9.494;2022-12-07T00:13:03;102335.75;;;14.87;42.58
57616;BME280;43816;52.054;-9.494;2022-12-07T00:13:13;102338.44;;;14.87;42.43
57616;BME280;43816;52.054;-9.494;2022-12-07T00:13:23;102324.56;;;14.78;42.50
57616;BME280;43816;52.054;-9.494;2022-12-07T00:13:34;102333.13;;;14.85;42.53
57616;BME280;43816;52.054;-9.494;2022-12-07T00:13:45;102327.06;;;14.82;42.41
57616;BME280;43816;52.054;-9.494;2022-12-07T00:13:57;102335.75;;;14.87;42.63
57616;BME280;43816;52.054;-9.494;2022-12-07T00:14:11;102337.59;;;14.86;42.32
57616;BME280;43816;52.054;-9.494;2022-12-07T00:14:22;102334.03;;;14.86;42.66
57616;BME280;43816;52.054;-9.494;2022-12-07T00:14:32;102330.53;;;14.84;42.47
57616;BME280;43816;52.054;-9.494;2022-12-07T00:14:52;102334.88;;;14.86;42.46
57616;BME280;43816;52.054;-9.494;2022-12-07T00:15:08;102333.03;;;14.87;42.58
57616;BME280;43816;52.054;-9.494;2022-12-07T00:15:19;102330.53;;;14.84;42.65
57616;BME280;43816;52.054;-9.494;2022-12-07T00:15:29;102325.22;;;14.82;42.46
57616;BME280;43816;52.054;-9.494;2022-12-07T00:15:40;102327.72;;;14.85;42.57
57616;BME280;43816;52.054;-9.494;2022-12-07T00:15:50;102326.00;;;14.84;42.42
57616;BME280;43816;52.054;-9.494;2022-12-07T00:16:22;102330.53;;;14.84;42.63
57616;BME280;43816;52.054;-9.494;2022-12-07T00:16:33;102328.06;;;14.80;42.63
57616;BME280;43816;52.054;-9.494;2022-12-07T00:16:44;102334.88;;;14.86;42.47
57616;BME280;43816;52.054;-9.494;2022-12-07T00:16:55;102332.28;;;14.85;42.38
57616;BME280;43816;52.054;-9.494;2022-12-07T00:17:05;102321.88;;;14.78;42.57
57616;BME280;43816;52.054;-9.494;2022-12-07T00:17:15;102327.28;;;14.78;42.52
57616;BME280;43816;52.054;-9.494;2022-12-07T00:17:25;102322.06;;;14.75;42.43
57616;BME280;43816;52.054;-9.494;2022-12-07T00:17:36;102339.44;;;14.86;42.34
57616;BME280;43816;52.054;-9.494;2022-12-07T00:17:46;102316.66;;;14.75;42.54
57616;BME280;43816;52.054;-9.494;2022-12-07T00:17:56;102327.06;;;14.82;42.82
57616;BME280;43816;52.054;-9.494;2022-12-07T00:18:09;102325.34;;;14.80;42.56
57616;BME280;43816;52.054;-9.494;2022-12-07T00:18:20;102333.13;;;14.85;42.43
57616;BME280;43816;52.054;-9.494;2022-12-07T00:18:30;102326.09;;;14.83;42.46
57616;BME280;43816;52.054;-9.494;2022-12-07T00:18:49;102334.03;;;14.86;42.78
57616;BME280;43816;52.054;-9.494;2022-12-07T00:19:00;102313.94;;;14.75;42.51
57616;BME280;43816;52.054;-9.494;2022-12-07T00:19:12;102330.44;;;14.85;42.38
57616;BME280;43816;52.054;-9.494;2022-12-07T00:19:22;102331.44;;;14.84;42.47
57616;BME280;43816;52.054;-9.494;2022-12-07T00:19:33;102328.81;;;14.83;42.46
57616;BME280;43816;52.054;-9.494;2022-12-07T00:19:43;102331.44;;;14.84;42.66
57616;BME280;43816;52.054;-9.494;2022-12-07T00:19:53;102334.03;;;14.86;42.39
57616;BME280;43816;52.054;-9.494;2022-12-07T00:20:04;102318.41;;;14.76;42.62
57616;BME280;43816;52.054;-9.494;2022-12-07T00:20:15;102326.00;;;14.84;42.40
57616;BME280;43816;52.054;-9.494;2022-12-07T00:20:25;102326.88;;;14.85;42.50
57616;BME280;43816;52.054;-9.494;2022-12-07T00:20:38;102327.81;;;14.84;42.58
57616;BME280;43816;52.054;-9.494;2022-12-07T00:20:48;102314.72;;;14.77;42.45
57616;BME280;43816;52.054;-9.494;2022-12-07T00:21:00;102313.84;;;14.77;42.70
57616;BME280;43816;52.054;-9.494;2022-12-07T00:21:26;102320.91;;;14.79;42.33
57616;BME280;43816;52.054;-9.494;2022-12-07T00:21:37;102325.13;;;14.84;42.56
57616;BME280;43816;52.054;-9.494;2022-12-07T00:21:48;102312.97;;;14.76;42.31
57616;BME280;43816;52.054;-9.494;2022-12-07T00:21:58;102319.03;;;14.80;42.50
57616;BME280;43816;52.054;-9.494;2022-12-07T00:22:08;102325.22;;;14.82;42.62
57616;BME280;43816;52.054;-9.494;2022-12-07T00:22:19;102323.41;;;14.83;42.58
57616;BME280;43816;52.054;-9.494;2022-12-07T00:22:32;102326.44;;;14.78;42.49
57616;BME280;43816;52.054;-9.494;2022-12-07T00:22:42;102329.78;;;14.82;42.66
57616;BME280;43816;52.054;-9.494;2022-12-07T00:22:55;102320.78;;;14.81;42.79
57616;BME280;43816;52.054;-9.494;2022-12-07T00:23:05;102322.66;;;14.80;42.59
57616;BME280;43816;52.054;-9.494;2022-12-07T00:23:16;102323.41;;;14.83;42.48
57616;BME280;43816;52.054;-9.494;2022-12-07T00:23:26;102315.69;;;14.76;42.30
57616;BME280;43816;52.054;-9.494;2022-12-07T00:23:41;102324.25;;;14.83;42.40
57616;BME280;43816;52.054;-9.494;2022-12-07T00:23:52;102322.84;;;14.77;42.20
57616;BME280;43816;52.054;-9.494;2022-12-07T00:24:06;102309.53;;;14.74;42.63
57616;BME280;43816;52.054;-9.494;2022-12-07T00:24:16;102330.53;;;14.84;42.70
57616;BME280;43816;52.054;-9.494;2022-12-07T00:24:27;102328.16;;;14.79;42.63
57616;BME280;43816;52.054;-9.494;2022-12-07T00:24:37;102328.81;;;14.83;42.59
57616;BME280;43816;52.054;-9.494;2022-12-07T00:24:47;102322.84;;;14.77;42.61
57616;BME280;43816;52.054;-9.494;2022-12-07T00:24:58;102312.13;;;14.76;42.63
57616;BME280;43816;52.054;-9.494;2022-12-07T00:25:08;102328.94;;;14.81;42.36
57616;BME280;43816;52.054;-9.494;2022-12-07T00:25:18;102318.41;;;14.76;42.49
57616;BME280;43816;52.054;-9.494;2022-12-07T00:25:30;102323.59;;;14.79;42.46
57616;BME280;43816;52.054;-9.494;2022-12-07T00:25:40;102329.88;;;14.80;42.50
57616;BME280;43816;52.054;-9.494;2022-12-07T00:25:50;102328.81;;;14.83;42.58
57616;BME280;43816;52.054;-9.494;2022-12-07T00:26:40;102308.53;;;14.75;42.40
57616;BME280;43816;52.054;-9.494;2022-12-07T00:26:51;102333.34;;;14.82;42.63
57616;BME280;43816;52.054;-9.494;2022-12-07T00:27:01;102332.50;;;14.82;42.40
57616;BME280;43816;52.054;-9.494;2022-12-07T00:27:11;102332.50;;;14.82;42.48
57616;BME280;43816;52.054;-9.494;2022-12-07T00:27:21;102319.25;;;14.77;42.43
57616;BME280;43816;52.054;-9.494;2022-12-07T00:27:32;102331.63;;;14.81;42.61
57616;BME280;43816;52.054;-9.494;2022-12-07T00:27:42;102332.50;;;14.82;42.42
57616;BME280;43816;52.054;-9.494;2022-12-07T00:27:53;102320.78;;;14.81;42.46
57616;BME280;43816;52.054;-9.494;2022-12-07T00:28:03;102321.09;;;14.76;42.23
57616;BME280;43816;52.054;-9.494;2022-12-07T00:28:13;102328.94;;;14.81;42.52
57616;BME280;43816;52.054;-9.494;2022-12-07T00:28:24;102321.88;;;14.78;42.52
57616;BME280;43816;52.054;-9.494;2022-12-07T00:28:34;102325.56;;;14.77;42.52
57616;BME280;43816;52.054;-9.494;2022-12-07T00:28:50;102332.50;;;14.82;42.46
57616;BME280;43816;52.054;-9.494;2022-12-07T00:29:04;102312.22;;;14.74;42.23
57616;BME280;43816;52.054;-9.494;2022-12-07T00:29:18;102329.78;;;14.82;42.59
57616;BME280;43816;52.054;-9.494;2022-12-07T00:29:29;102322.66;;;14.80;42.44
57616;BME280;43816;52.054;-9.494;2022-12-07T00:29:39;102326.22;;;14.81;42.58
57616;BME280;43816;52.054;-9.494;2022-12-07T00:29:49;102318.41;;;14.76;42.58
57616;BME280;43816;52.054;-9.494;2022-12-07T00:30:00;102321.75;;;14.80;42.38
57616;BME280;43816;52.054;-9.494;2022-12-07T00:30:10;102320.25;;;14.76;42.44
57616;BME280;43816;52.054;-9.494;2022-12-07T00:30:21;102321.88;;;14.78;42.43
57616;BME280;43816;52.054;-9.494;2022-12-07T00:30:31;102306.28;;;14.69;42.29
57616;BME280;43816;52.054;-9.494;2022-12-07T00:30:42;102328.06;;;14.80;42.37
57616;BME280;43816;52.054;-9.494;2022-12-07T00:31:03;102311.47;;;14.72;42.05
57616;BME280;43816;52.054;-9.494;2022-12-07T00:31:15;102327.06;;;14.82;42.51
57616;BME280;43816;52.054;-9.494;2022-12-07T00:31:28;102319.03;;;14.80;42.52
57616;BME280;43816;52.054;-9.494;2022-12-07T00:31:38;102328.06;;;14.80;42.52
57616;BME280;43816;52.054;-9.494;2022-12-07T00:31:49;102325.34;;;14.80;42.52
57616;BME280;43816;52.054;-9.494;2022-12-07T00:31:59;102313.19;;;14.73;42.72
57616;BME280;43816;52.054;-9.494;2022-12-07T00:32:09;102316.78;;;14.74;42.47
57616;BME280;43816;52.054;-9.494;2022-12-07T00:32:19;102322.97;;;14.76;42.40
57616;BME280;43816;52.054;-9.494;2022-12-07T00:32:30;102326.31;;;14.79;42.41
57616;BME280;43816;52.054;-9.494;2022-12-07T00:32:40;102324.47;;;14.80;42.09
57616;BME280;43816;52.054;-9.494;2022-12-07T00:32:50;102326.44;;;14.78;42.45
57616;BME280;43816;52.054;-9.494;2022-12-07T00:33:01;102316.66;;;14.75;42.41
57616;BME280;43816;52.054;-9.494;2022-12-07T00:33:11;102314.09;;;14.74;42.48
57616;BME280;43816;52.054;-9.494;2022-12-07T00:33:21;102319.38;;;14.75;42.41
57616;BME280;43816;52.054;-9.494;2022-12-07T00:33:32;102329.03;;;14.79;42.56
57616;BME280;43816;52.054;-9.494;2022-12-07T00:33:43;102329.03;;;14.79;42.45
57616;BME280;43816;52.054;-9.494;2022-12-07T00:33:54;102316.66;;;14.75;42.39
57616;BME280;43816;52.054;-9.494;2022-12-07T00:34:09;102324.69;;;14.77;42.46
57616;BME280;43816;52.054;-9.494;2022-12-07T00:34:21;102320.16;;;14.77;42.50
57616;BME280;43816;52.054;-9.494;2022-12-07T00:34:32;102329.03;;;14.79;42.57
57616;BME280;43816;52.054;-9.494;2022-12-07T00:34:42;102315.78;;;14.75;42.39
57616;BME280;43816;52.054;-9.494;2022-12-07T00:34:52;102315.16;;;14.71;42.53
57616;BME280;43816;52.054;-9.494;2022-12-07T00:35:03;102318.41;;;14.76;42.53
57616;BME280;43816;52.054;-9.494;2022-12-07T00:35:13;102309.72;;;14.71;42.44
57616;BME280;43816;52.054;-9.494;2022-12-07T00:35:24;102319.50;;;14.74;42.37
57616;BME280;43816;52.054;-9.494;2022-12-07T00:35:34;102323.81;;;14.76;42.65
57616;BME280;43816;52.054;-9.494;2022-12-07T00:35:44;102320.16;;;14.77;42.58
57616;BME280;43816;52.054;-9.494;2022-12-07T00:35:56;102316.66;;;14.75;42.40
57616;BME280;43816;52.054;-9.494;2022-12-07T00:36:09;102324.47;;;14.80;42.57
57616;BME280;43816;52.054;-9.494;2022-12-07T00:36:22;102319.16;;;14.78;42.38
57616;BME280;43816;52.054;-9.494;2022-12-07T00:36:33;102322.97;;;14.76;42.62
57616;BME280;43816;52.054;-9.494;2022-12-07T00:36:43;102313.19;;;14.73;42.35
57616;BME280;43816;52.054;-9.494;2022-12-07T00:36:53;102327.28;;;14.78;42.40
57616;BME280;43816;52.054;-9.494;2022-12-07T00:37:03;102321.75;;;14.80;42.54
57616;BME280;43816;52.054;-9.494;2022-12-07T00:37:14;102321.88;;;14.78;42.46
57616;BME280;43816;52.054;-9.494;2022-12-07T00:37:24;102322.75;;;14.79;42.63
57616;BME280;43816;52.054;-9.494;2022-12-07T00:37:34;102318.50;;;14.75;42.39
57616;BME280;43816;52.054;-9.494;2022-12-07T00:37:45;102328.28;;;14.77;42.53
57616;BME280;43816;52.054;-9.494;2022-12-07T00:37:55;102329.03;;;14.79;42.57
57616;BME280;43816;52.054;-9.494;2022-12-07T00:38:05;102313.28;;;14.72;42.59
57616;BME280;43816;52.054;-9.494;2022-12-07T00:38:15;102316.91;;;14.72;42.42
57616;BME280;43816;52.054;-9.494;2022-12-07T00:38:31;102322.75;;;14.79;42.34
57616;BME280;43816;52.054;-9.494;2022-12-07T00:38:42;102327.28;;;14.78;42.76
57616;BME280;43816;52.054;-9.494;2022-12-07T00:38:56;102321.22;;;14.75;42.41
57616;BME280;43816;52.054;-9.494;2022-12-07T00:39:07;102322.97;;;14.76;42.63
57616;BME280;43816;52.054;-9.494;2022-12-07T00:39:17;102314.28;;;14.71;42.57
57616;BME280;43816;52.054;-9.494;2022-12-07T00:39:28;102325.66;;;14.76;42.44
57616;BME280;43816;52.054;-9.494;2022-12-07T00:39:38;102319.25;;;14.77;42.32
57616;BME280;43816;52.054;-9.494;2022-12-07T00:39:48;102318.59;;;14.73;42.58
57616;BME280;43816;52.054;-9.494;2022-12-07T00:39:58;102326.44;;;14.78;42.47
57616;BME280;43816;52.054;-9.494;2022-12-07T00:40:09;102317.66;;;14.74;42.12
57616;BME280;43816;52.054;-9.494;2022-12-07T00:40:20;102313.19;;;14.73;42.50
57616;BME280;43816;52.054;-9.494;2022-12-07T00:40:30;102313.41;;;14.70;42.46
57616;BME280;43816;52.054;-9.494;2022-12-07T00:40:40;102315.16;;;14.71;42.83
57616;BME280;43816;52.054;-9.494;2022-12-07T00:40:58;102327.28;;;14.78;42.50
57616;BME280;43816;52.054;-9.494;2022-12-07T00:41:14;102323.81;;;14.76;42.54
57616;BME280;43816;52.054;-9.494;2022-12-07T00:41:26;102322.31;;;14.72;42.45
57616;BME280;43816;52.054;-9.494;2022-12-07T00:41:37;102308.22;;;14.67;42.44
57616;BME280;43816;52.054;-9.494;2022-12-07T00:41:47;102321.22;;;14.75;42.38
57616;BME280;43816;52.054;-9.494;2022-12-07T00:41:58;102330.97;;;14.77;42.48
57616;BME280;43816;52.054;-9.494;2022-12-07T00:42:08;102321.22;;;14.75;42.42
57616;BME280;43816;52.054;-9.494;2022-12-07T00:42:18;102328.47;;;14.74;42.61
57616;BME280;43816;52.054;-9.494;2022-12-07T00:42:28;102332.06;;;14.75;42.77
57616;BME280;43816;52.054;-9.494;2022-12-07T00:42:39;102333.69;;;14.77;42.56
57616;BME280;43816;52.054;-9.494;2022-12-07T00:42:49;102333.69;;;14.77;42.18
57616;BME280;43816;52.054;-9.494;2022-12-07T00:42:59;102331.84;;;14.78;42.44
57616;BME280;43816;52.054;-9.494;2022-12-07T00:43:09;102332.91;;;14.75;42.55
57616;BME280;43816;52.054;-9.494;2022-12-07T00:43:20;102336.41;;;14.77;42.64
57616;BME280;43816;52.054;-9.494;2022-12-07T00:43:30;102321.41;;;14.72;42.21
57616;BME280;43816;52.054;-9.494;2022-12-07T00:43:42;102338.22;;;14.77;42.17
57616;BME280;43816;52.054;-9.494;2022-12-07T00:43:53;102324.03;;;14.73;42.78
57616;BME280;43816;52.054;-9.494;2022-12-07T00:44:04;102332.81;;;14.77;42.50
57616;BME280;43816;52.054;-9.494;2022-12-07T00:44:14;102331.94;;;14.76;42.33
57616;BME280;43816;52.054;-9.494;2022-12-07T00:44:24;102308.66;;;14.61;42.50
57616;BME280;43816;52.054;-9.494;2022-12-07T00:44:34;102334.66;;;14.76;42.66
57616;BME280;43816;52.054;-9.494;2022-12-07T00:44:45;102336.41;;;14.77;42.52
57616;BME280;43816;52.054;-9.494;2022-12-07T00:44:55;102324.13;;;14.72;42.53
57616;BME280;43816;52.054;-9.494;2022-12-07T00:45:06;102320.78;;;14.68;42.35
57616;BME280;43816;52.054;-9.494;2022-12-07T00:45:16;102338.22;;;14.77;42.43
57616;BME280;43816;52.054;-9.494;2022-12-07T00:45:26;102329.25;;;14.76;42.49
57616;BME280;43816;52.054;-9.494;2022-12-07T00:45:37;102325.88;;;14.73;42.54
57616;BME280;43816;52.054;-9.494;2022-12-07T00:45:47;102333.81;;;14.76;42.57
57616;BME280;43816;52.054;-9.494;2022-12-07T00:45:57;102335.63;;;14.75;42.41
57616;BME280;43816;52.054;-9.494;2022-12-07T00:46:09;102331.94;;;14.76;42.46
57616;BME280;43816;52.054;-9.494;2022-12-07T00:46:23;102327.50;;;14.75;42.47
57616;BME280;43816;52.054;-9.494;2022-12-07T00:46:33;102324.34;;;14.69;42.35
57616;BME280;43816;52.054;-9.494;2022-12-07T00:46:43;102311.91;;;14.66;42.45
57616;BME280;43816;52.054;-9.494;2022-12-07T00:46:54;102333.81;;;14.76;42.21
57616;BME280;43816;52.054;-9.494;2022-12-07T00:47:04;102335.50;;;14.77;42.37
57616;BME280;43816;52.054;-9.494;2022-12-07T00:47:14;102330.44;;;14.72;42.47
57616;BME280;43816;52.054;-9.494;2022-12-07T00:47:24;102323.16;;;14.73;42.46
57616;BME280;43816;52.054;-9.494;2022-12-07T00:47:35;102325.34;;;14.68;42.46
57616;BME280;43816;52.054;-9.494;2022-12-07T00:47:45;102327.72;;;14.72;42.31
57616;BME280;43816;52.054;-9.494;2022-12-07T00:47:55;102336.50;;;14.76;42.42
57616;BME280;43816;52.054;-9.494;2022-12-07T00:48:06;102331.50;;;14.70;42.52
57616;BME280;43816;52.054;-9.494;2022-12-07T00:48:16;102332.91;;;14.75;42.56
57616;BME280;43816;52.054;-9.494;2022-12-07T00:48:26;102335.63;;;14.75;42.43
57616;BME280;43816;52.054;-9.494;2022-12-07T00:48:37;102333.81;;;14.76;42.49
57616;BME280;43816;52.054;-9.494;2022-12-07T00:48:48;102332.91;;;14.75;42.58
57616;BME280;43816;52.054;-9.494;2022-12-07T00:48:59;102334.66;;;14.76;42.32
57616;BME280;43816;52.054;-9.494;2022-12-07T00:49:09;102332.91;;;14.75;42.76
57616;BME280;43816;52.054;-9.494;2022-12-07T00:49:19;102323.38;;;14.70;42.28
57616;BME280;43816;52.054;-9.494;2022-12-07T00:49:29;102331.94;;;14.76;42.60
57616;BME280;43816;52.054;-9.494;2022-12-07T00:49:40;102340.06;;;14.76;42.51
57616;BME280;43816;52.054;-9.494;2022-12-07T00:49:50;102332.06;;;14.75;42.34
57616;BME280;43816;52.054;-9.494;2022-12-07T00:50:00;102326.84;;;14.72;42.68
57616;BME280;43816;52.054;-9.494;2022-12-07T00:50:10;102334.66;;;14.76;42.49
57616;BME280;43816;52.054;-9.494;2022-12-07T00:50:21;102325.22;;;14.69;42.63
57616;BME280;43816;52.054;-9.494;2022-12-07T00:50:31;102332.16;;;14.73;42.69
57616;BME280;43816;52.054;-9.494;2022-12-07T00:50:42;102322.31;;;14.72;42.63
57616;BME280;43816;52.054;-9.494;2022-12-07T00:50:52;102327.94;;;14.69;42.38
57616;BME280;43816;52.054;-9.494;2022-12-07T00:51:03;102330.53;;;14.71;42.32
57616;BME280;43816;52.054;-9.494;2022-12-07T00:51:14;102331.09;;;14.76;42.41
57616;BME280;43816;52.054;-9.494;2022-12-07T00:51:25;102330.34;;;14.74;42.39
57616;BME280;43816;52.054;-9.494;2022-12-07T00:51:35;102311.34;;;14.61;42.41
57616;BME280;43816;52.054;-9.494;2022-12-07T00:51:48;102327.50;;;14.75;42.46
57616;BME280;43816;52.054;-9.494;2022-12-07T00:51:58;102339.22;;;14.76;42.27
57616;BME280;43816;52.054;-9.494;2022-12-07T00:52:08;102316.09;;;14.70;42.28
57616;BME280;43816;52.054;-9.494;2022-12-07T00:52:18;102328.59;;;14.73;42.49
57616;BME280;43816;52.054;-9.494;2022-12-07T00:52:29;102320.66;;;14.70;42.41
57616;BME280;43816;52.054;-9.494;2022-12-07T00:52:39;102330.19;;;14.75;42.50
57616;BME280;43816;52.054;-9.494;2022-12-07T00:52:49;102327.50;;;14.75;42.54
57616;BME280;43816;52.054;-9.494;2022-12-07T00:53:00;102319.72;;;14.71;42.58
57616;BME280;43816;52.054;-9.494;2022-12-07T00:53:10;102327.50;;;14.75;42.41
57616;BME280;43816;52.054;-9.494;2022-12-07T00:53:20;102293.53;;;14.57;42.40
57616;BME280;43816;52.054;-9.494;2022-12-07T00:53:34;102318.81;;;14.70;42.45
57616;BME280;43816;52.054;-9.494;2022-12-07T00:53:44;102318.81;;;14.70;42.52
57616;BME280;43816;52.054;-9.494;2022-12-07T00:53:55;102326.75;;;14.73;42.41
57616;BME280;43816;52.054;-9.494;2022-12-07T00:54:05;102329.34;;;14.75;42.25
57616;BME280;43816;52.054;-9.494;2022-12-07T00:54:15;102326.63;;;14.75;42.42
57616;BME280;43816;52.054;-9.494;2022-12-07T00:54:26;102328.47;;;14.74;42.33
57616;BME280;43816;52.054;-9.494;2022-12-07T00:54:36;102312.75;;;14.67;42.48
57616;BME280;43816;52.054;-9.494;2022-12-07T00:54:46;102325.78;;;14.74;42.40
57616;BME280;43816;52.054;-9.494;2022-12-07T00:54:56;102324.25;;;14.70;42.59
57616;BME280;43816;52.054;-9.494;2022-12-07T00:55:07;102311.91;;;14.66;42.22
57616;BME280;43816;52.054;-9.494;2022-12-07T00:55:18;102318.06;;;14.68;42.13
57616;BME280;43816;52.054;-9.494;2022-12-07T00:55:28;102332.06;;;14.75;42.45
57616;BME280;43816;52.054;-9.494;2022-12-07T00:55:38;102323.16;;;14.73;42.11
57616;BME280;43816;52.054;-9.494;2022-12-07T00:55:49;102331.19;;;14.74;42.58
57616;BME280;43816;52.054;-9.494;2022-12-07T00:56:21;102330.19;;;14.75;42.51
57616;BME280;43816;52.054;-9.494;2022-12-07T00:56:31;102324.25;;;14.70;42.42
57616;BME280;43816;52.054;-9.494;2022-12-07T00:56:42;102333.91;;;14.74;42.24
57616;BME280;43816;52.054;-9.494;2022-12-07T00:56:52;102319.72;;;14.71;42.60
57616;BME280;43816;52.054;-9.494;2022-12-07T00:57:02;102318.06;;;14.68;42.32
57616;BME280;43816;52.054;-9.494;2022-12-07T00:57:12;102319.06;;;14.67;42.26
57616;BME280;43816;52.054;-9.494;2022-12-07T00:57:23;102329.56;;;14.72;42.40
57616;BME280;43816;52.054;-9.494;2022-12-07T00:57:33;102306.03;;;14.59;42.63
57616;BME280;43816;52.054;-9.494;2022-12-07T00:57:43;102314.72;;;14.65;42.42
57616;BME280;43816;52.054;-9.494;2022-12-07T00:57:53;102326.75;;;14.73;42.34
57616;BME280;43816;52.054;-9.494;2022-12-07T00:58:04;102330.44;;;14.72;42.50
57616;BME280;43816;52.054;-9.494;2022-12-07T00:58:14;102325.22;;;14.69;42.62
57616;BME280;43816;52.054;-9.494;2022-12-07T00:58:25;102320.13;;;14.65;42.37
57616;BME280;43816;52.054;-9.494;2022-12-07T00:58:35;102331.19;;;14.74;42.37
57616;BME280;43816;52.054;-9.494;2022-12-07T00:58:59;102324.03;;;14.73;42.46
57616;BME280;43816;52.054;-9.494;2022-12-07T00:59:12;102334.88;;;14.73;42.40